首页
METAR-TAF:

METAR-TAF

机场 :

Peterborough, 安大略省, 加拿大

纬度: 44-14N, 经度: 078-22W, 海拔: 191米

当前天气观测

该预报发布于18分钟前的08:00 UTC
风速6节,风向南转南东
温度 -2°C
湿度 69%
气压 1022 hPa
能見度: 14.5公里
多云层高于18000英尺

METAR: CYPQ 130800Z AUTO 15006KT 9SM BKN180 M02/M07 A3019 RMK SLP235

时间: 03:18 (08:18 UTC)

预报

该预报发布于12小时和39分钟前的19:39 UTC
预报有效从12日的 20点(UTC)到 13日的 03点(UTC)
风速6节,风向南转西南
能見度: 10公里
散云层高于2000英尺
多云层高于8000英尺
短暂存在
从 12日的 20点(UTC)到 12日的 21点(UTC)
能見度: 8.0公里
多云层高于2000英尺
阴天层高于5000英尺
小阵雪
从 12日的 2100点(UTC)
风速6节,风向
能見度: 10公里
散云层高于2000英尺
多云层高于8000英尺
短暂存在
从 12日的 21点(UTC)到 12日的 23点(UTC)
多云层高于2000英尺
阴天层高于8000英尺
从 13日的 0200点(UTC)
风速3节,风向多变
能見度: 10公里
少量云层高于10000英尺
多云层高于20000英尺

TAF: CYPQ 121939Z 1220/1303 20006KT P6SM SCT020 BKN080 TEMPO 1220/1221 5SM -SHSN BKN020 OVC050 FM122100 19006KT P6SM SCT020 BKN080 TEMPO 1221/1223 BKN020 OVC080 FM130200 VRB03KT P6SM FEW100 BKN200 RMK FCST BASED ON AUTO OBS. NXT FCST WILL BE ISSUED AT 131045Z

超过4000个机场的气象观测和天气预报(METAR&TAF报告)。

可查询的气象台以黄色和红色小点在地图上表示。

将鼠标移到小点上方,可查看气象台名称。

然后点击查看天气观测和预报。

如需切换地图:点击带黑十字的绿色按钮放大地图;点击带横线的绿色按钮缩小地图;或者点击绿色箭头查看邻近地区的地图。


METAR-TAF: